sensor_id;sensor_type;location;lat;lon;timestamp;temperature;humidity
19090;DHT22;9677;50.656;13.064;2022-10-13T00:01:23;12.20;56.20
19090;DHT22;9677;50.656;13.064;2022-10-13T00:03:52;12.20;56.20
19090;DHT22;9677;50.656;13.064;2022-10-13T00:06:23;12.20;56.20
19090;DHT22;9677;50.656;13.064;2022-10-13T00:08:54;12.20;56.20
19090;DHT22;9677;50.656;13.064;2022-10-13T00:11:25;12.20;56.20
19090;DHT22;9677;50.656;13.064;2022-10-13T00:13:56;12.20;56.20
19090;DHT22;9677;50.656;13.064;2022-10-13T00:16:28;12.20;56.20
19090;DHT22;9677;50.656;13.064;2022-10-13T00:18:57;12.20;56.20
19090;DHT22;9677;50.656;13.064;2022-10-13T00:21:27;12.50;56.40
19090;DHT22;9677;50.656;13.064;2022-10-13T00:23:57;12.20;56.20
19090;DHT22;9677;50.656;13.064;2022-10-13T00:26:26;12.20;56.30
19090;DHT22;9677;50.656;13.064;2022-10-13T00:28:55;12.20;56.30
19090;DHT22;9677;50.656;13.064;2022-10-13T00:31:26;12.30;56.30
19090;DHT22;9677;50.656;13.064;2022-10-13T00:33:57;12.20;56.30
19090;DHT22;9677;50.656;13.064;2022-10-13T00:36:28;12.30;56.40
19090;DHT22;9677;50.656;13.064;2022-10-13T00:38:58;12.30;56.30
19090;DHT22;9677;50.656;13.064;2022-10-13T00:41:26;12.30;56.30
19090;DHT22;9677;50.656;13.064;2022-10-13T00:43:57;12.30;56.30
19090;DHT22;9677;50.656;13.064;2022-10-13T00:46:28;12.30;56.30
19090;DHT22;9677;50.656;13.064;2022-10-13T00:49:00;12.30;56.30
19090;DHT22;9677;50.656;13.064;2022-10-13T00:51:33;12.30;56.30
19090;DHT22;9677;50.656;13.064;2022-10-13T00:54:09;12.30;56.40
19090;DHT22;9677;50.656;13.064;2022-10-13T00:56:41;12.20;56.40
19090;DHT22;9677;50.656;13.064;2022-10-13T00:59:14;12.30;56.30
19090;DHT22;9677;50.656;13.064;2022-10-13T01:01:49;12.30;56.40
19090;DHT22;9677;50.656;13.064;2022-10-13T01:04:19;12.30;56.30
19090;DHT22;9677;50.656;13.064;2022-10-13T01:06:50;12.30;56.30
19090;DHT22;9677;50.656;13.064;2022-10-13T01:09:20;12.20;56.20
19090;DHT22;9677;50.656;13.064;2022-10-13T01:11:57;12.20;56.30
19090;DHT22;9677;50.656;13.064;2022-10-13T01:14:37;12.20;56.40
19090;DHT22;9677;50.656;13.064;2022-10-13T01:17:24;12.20;56.40
19090;DHT22;9677;50.656;13.064;2022-10-13T01:20:30;12.20;56.50
19090;DHT22;9677;50.656;13.064;2022-10-13T01:23:18;12.20;56.60
19090;DHT22;9677;50.656;13.064;2022-10-13T01:26:16;12.20;56.50
19090;DHT22;9677;50.656;13.064;2022-10-13T01:29:12;12.20;56.40
19090;DHT22;9677;50.656;13.064;2022-10-13T01:31:53;12.20;56.50
19090;DHT22;9677;50.656;13.064;2022-10-13T01:34:32;12.10;56.30
19090;DHT22;9677;50.656;13.064;2022-10-13T01:37:08;12.10;56.30
19090;DHT22;9677;50.656;13.064;2022-10-13T01:39:44;12.20;56.30
19090;DHT22;9677;50.656;13.064;2022-10-13T01:42:17;12.10;56.30
19090;DHT22;9677;50.656;13.064;2022-10-13T01:44:49;12.10;56.30
19090;DHT22;9677;50.656;13.064;2022-10-13T01:47:22;12.10;56.30
19090;DHT22;9677;50.656;13.064;2022-10-13T01:49:53;12.10;56.30
19090;DHT22;9677;50.656;13.064;2022-10-13T01:52:26;12.10;56.30
19090;DHT22;9677;50.656;13.064;2022-10-13T01:55:08;12.10;56.30
19090;DHT22;9677;50.656;13.064;2022-10-13T01:57:40;12.00;56.40
19090;DHT22;9677;50.656;13.064;2022-10-13T02:00:13;12.00;56.40
19090;DHT22;9677;50.656;13.064;2022-10-13T02:02:52;12.00;56.40
19090;DHT22;9677;50.656;13.064;2022-10-13T02:05:36;12.00;56.40
19090;DHT22;9677;50.656;13.064;2022-10-13T02:08:14;12.00;56.50
19090;DHT22;9677;50.656;13.064;2022-10-13T02:10:51;12.00;56.40
19090;DHT22;9677;50.656;13.064;2022-10-13T02:13:26;12.00;56.50
19090;DHT22;9677;50.656;13.064;2022-10-13T02:15:58;12.00;56.50
19090;DHT22;9677;50.656;13.064;2022-10-13T02:18:32;11.90;56.40
19090;DHT22;9677;50.656;13.064;2022-10-13T02:21:05;12.00;56.50
19090;DHT22;9677;50.656;13.064;2022-10-13T02:23:33;12.00;56.50
19090;DHT22;9677;50.656;13.064;2022-10-13T02:26:03;12.00;56.50
19090;DHT22;9677;50.656;13.064;2022-10-13T02:28:32;12.00;56.60
19090;DHT22;9677;50.656;13.064;2022-10-13T02:31:01;11.90;56.50
19090;DHT22;9677;50.656;13.064;2022-10-13T02:33:31;11.90;56.50
19090;DHT22;9677;50.656;13.064;2022-10-13T02:35:59;11.90;56.60
19090;DHT22;9677;50.656;13.064;2022-10-13T02:38:28;11.90;56.50
19090;DHT22;9677;50.656;13.064;2022-10-13T02:40:56;11.90;56.60
19090;DHT22;9677;50.656;13.064;2022-10-13T02:43:25;11.90;56.50
19090;DHT22;9677;50.656;13.064;2022-10-13T02:45:53;11.90;56.50
19090;DHT22;9677;50.656;13.064;2022-10-13T02:48:22;11.90;56.60
19090;DHT22;9677;50.656;13.064;2022-10-13T02:50:52;11.90;56.60
19090;DHT22;9677;50.656;13.064;2022-10-13T02:53:20;11.90;56.50
19090;DHT22;9677;50.656;13.064;2022-10-13T02:55:49;11.80;56.50
19090;DHT22;9677;50.656;13.064;2022-10-13T02:58:18;11.80;56.50
19090;DHT22;9677;50.656;13.064;2022-10-13T03:00:46;11.80;56.60
19090;DHT22;9677;50.656;13.064;2022-10-13T03:03:15;11.80;56.60
19090;DHT22;9677;50.656;13.064;2022-10-13T03:05:44;11.80;56.60
19090;DHT22;9677;50.656;13.064;2022-10-13T03:08:14;11.80;56.60
19090;DHT22;9677;50.656;13.064;2022-10-13T03:10:44;11.80;56.60
19090;DHT22;9677;50.656;13.064;2022-10-13T03:13:12;11.70;56.50
19090;DHT22;9677;50.656;13.064;2022-10-13T03:15:41;11.70;56.60
19090;DHT22;9677;50.656;13.064;2022-10-13T03:18:10;11.70;56.60
19090;DHT22;9677;50.656;13.064;2022-10-13T03:20:38;11.70;56.60
19090;DHT22;9677;50.656;13.064;2022-10-13T03:23:07;11.70;56.70
19090;DHT22;9677;50.656;13.064;2022-10-13T03:25:37;11.70;56.70
19090;DHT22;9677;50.656;13.064;2022-10-13T03:28:06;11.70;56.70
19090;DHT22;9677;50.656;13.064;2022-10-13T03:30:35;11.70;56.70
19090;DHT22;9677;50.656;13.064;2022-10-13T03:33:04;11.60;56.70
19090;DHT22;9677;50.656;13.064;2022-10-13T03:35:32;11.60;56.70
19090;DHT22;9677;50.656;13.064;2022-10-13T03:38:01;11.60;56.80
19090;DHT22;9677;50.656;13.064;2022-10-13T03:40:32;11.60;56.80
19090;DHT22;9677;50.656;13.064;2022-10-13T03:43:03;11.60;56.80
19090;DHT22;9677;50.656;13.064;2022-10-13T03:45:55;11.60;56.80
19090;DHT22;9677;50.656;13.064;2022-10-13T03:48:25;11.60;56.90
19090;DHT22;9677;50.656;13.064;2022-10-13T03:50:54;11.60;56.90
19090;DHT22;9677;50.656;13.064;2022-10-13T03:53:24;11.60;56.90
19090;DHT22;9677;50.656;13.064;2022-10-13T03:55:54;11.60;56.90
19090;DHT22;9677;50.656;13.064;2022-10-13T03:58:25;11.50;56.90
19090;DHT22;9677;50.656;13.064;2022-10-13T04:00:54;11.50;56.90
19090;DHT22;9677;50.656;13.064;2022-10-13T04:03:23;11.50;56.90
19090;DHT22;9677;50.656;13.064;2022-10-13T04:05:52;11.50;56.90
19090;DHT22;9677;50.656;13.064;2022-10-13T04:08:20;11.50;56.90
19090;DHT22;9677;50.656;13.064;2022-10-13T04:10:57;11.50;57.00
19090;DHT22;9677;50.656;13.064;2022-10-13T04:13:28;11.40;57.10
19090;DHT22;9677;50.656;13.064;2022-10-13T04:16:01;11.40;57.00
19090;DHT22;9677;50.656;13.064;2022-10-13T04:18:30;11.40;57.00
19090;DHT22;9677;50.656;13.064;2022-10-13T04:20:59;11.40;57.00
19090;DHT22;9677;50.656;13.064;2022-10-13T04:23:28;11.40;57.00
19090;DHT22;9677;50.656;13.064;2022-10-13T04:25:56;11.40;57.00
19090;DHT22;9677;50.656;13.064;2022-10-13T04:28:26;11.40;57.00
19090;DHT22;9677;50.656;13.064;2022-10-13T04:30:57;11.30;57.00
19090;DHT22;9677;50.656;13.064;2022-10-13T04:33:27;11.30;57.10
19090;DHT22;9677;50.656;13.064;2022-10-13T04:35:56;11.30;57.10
19090;DHT22;9677;50.656;13.064;2022-10-13T04:38:25;11.30;57.20
19090;DHT22;9677;50.656;13.064;2022-10-13T04:40:53;11.30;57.20
19090;DHT22;9677;50.656;13.064;2022-10-13T04:43:24;11.30;57.20
19090;DHT22;9677;50.656;13.064;2022-10-13T04:46:00;11.30;57.20
19090;DHT22;9677;50.656;13.064;2022-10-13T04:48:29;11.20;57.30
19090;DHT22;9677;50.656;13.064;2022-10-13T04:50:59;11.20;57.20
19090;DHT22;9677;50.656;13.064;2022-10-13T04:53:28;11.20;57.20
19090;DHT22;9677;50.656;13.064;2022-10-13T04:56:00;11.20;57.20
19090;DHT22;9677;50.656;13.064;2022-10-13T04:58:30;11.20;57.20
19090;DHT22;9677;50.656;13.064;2022-10-13T05:01:02;11.10;57.10
19090;DHT22;9677;50.656;13.064;2022-10-13T05:03:32;11.10;57.20
19090;DHT22;9677;50.656;13.064;2022-10-13T05:06:01;11.10;57.20
19090;DHT22;9677;50.656;13.064;2022-10-13T05:08:30;11.10;57.20
19090;DHT22;9677;50.656;13.064;2022-10-13T05:11:01;11.00;57.20
19090;DHT22;9677;50.656;13.064;2022-10-13T05:13:29;11.00;57.30
19090;DHT22;9677;50.656;13.064;2022-10-13T05:15:58;11.00;57.40
19090;DHT22;9677;50.656;13.064;2022-10-13T05:18:28;11.00;57.50
19090;DHT22;9677;50.656;13.064;2022-10-13T05:21:05;11.00;57.50
19090;DHT22;9677;50.656;13.064;2022-10-13T05:23:39;11.00;57.70
19090;DHT22;9677;50.656;13.064;2022-10-13T05:26:09;11.00;57.70
19090;DHT22;9677;50.656;13.064;2022-10-13T05:28:39;11.10;57.70
19090;DHT22;9677;50.656;13.064;2022-10-13T05:31:09;11.10;57.70
19090;DHT22;9677;50.656;13.064;2022-10-13T05:33:41;11.10;57.80
19090;DHT22;9677;50.656;13.064;2022-10-13T05:36:12;11.00;57.70
19090;DHT22;9677;50.656;13.064;2022-10-13T05:38:41;11.00;57.70
19090;DHT22;9677;50.656;13.064;2022-10-13T05:41:12;11.10;57.70
19090;DHT22;9677;50.656;13.064;2022-10-13T05:43:41;11.00;57.70
19090;DHT22;9677;50.656;13.064;2022-10-13T05:46:10;11.10;57.70
19090;DHT22;9677;50.656;13.064;2022-10-13T05:48:40;11.00;57.70
19090;DHT22;9677;50.656;13.064;2022-10-13T05:51:13;11.00;57.70
19090;DHT22;9677;50.656;13.064;2022-10-13T05:53:46;11.00;57.80
19090;DHT22;9677;50.656;13.064;2022-10-13T05:56:28;11.10;57.80
19090;DHT22;9677;50.656;13.064;2022-10-13T05:59:01;11.10;57.80
19090;DHT22;9677;50.656;13.064;2022-10-13T06:01:32;11.10;57.80
19090;DHT22;9677;50.656;13.064;2022-10-13T06:04:08;11.10;57.70
19090;DHT22;9677;50.656;13.064;2022-10-13T06:06:40;11.10;57.80
19090;DHT22;9677;50.656;13.064;2022-10-13T06:09:09;11.10;57.80
19090;DHT22;9677;50.656;13.064;2022-10-13T06:11:38;11.00;57.70
19090;DHT22;9677;50.656;13.064;2022-10-13T06:14:06;11.10;57.80
19090;DHT22;9677;50.656;13.064;2022-10-13T06:16:35;11.00;57.80
19090;DHT22;9677;50.656;13.064;2022-10-13T06:19:05;11.00;57.80
19090;DHT22;9677;50.656;13.064;2022-10-13T06:21:34;11.00;57.80
19090;DHT22;9677;50.656;13.064;2022-10-13T06:24:03;11.00;57.90
19090;DHT22;9677;50.656;13.064;2022-10-13T06:26:32;11.00;57.90
19090;DHT22;9677;50.656;13.064;2022-10-13T06:29:00;11.00;57.90
19090;DHT22;9677;50.656;13.064;2022-10-13T06:31:29;11.00;57.90
19090;DHT22;9677;50.656;13.064;2022-10-13T06:33:58;11.00;58.00
19090;DHT22;9677;50.656;13.064;2022-10-13T06:36:28;11.00;58.00
19090;DHT22;9677;50.656;13.064;2022-10-13T06:38:57;11.00;58.00
19090;DHT22;9677;50.656;13.064;2022-10-13T06:41:26;11.00;58.00
19090;DHT22;9677;50.656;13.064;2022-10-13T06:43:54;11.00;58.10
19090;DHT22;9677;50.656;13.064;2022-10-13T06:46:23;11.00;58.10
19090;DHT22;9677;50.656;13.064;2022-10-13T06:48:51;11.00;58.20
19090;DHT22;9677;50.656;13.064;2022-10-13T06:51:21;11.10;58.30
19090;DHT22;9677;50.656;13.064;2022-10-13T06:53:51;11.00;58.30
19090;DHT22;9677;50.656;13.064;2022-10-13T06:56:23;11.10;58.40
19090;DHT22;9677;50.656;13.064;2022-10-13T06:58:51;11.10;58.40
19090;DHT22;9677;50.656;13.064;2022-10-13T07:01:20;11.10;58.40
19090;DHT22;9677;50.656;13.064;2022-10-13T07:03:49;11.10;58.40
19090;DHT22;9677;50.656;13.064;2022-10-13T07:06:20;11.10;58.50
19090;DHT22;9677;50.656;13.064;2022-10-13T07:08:51;11.20;58.50
19090;DHT22;9677;50.656;13.064;2022-10-13T07:11:19;11.20;58.50
19090;DHT22;9677;50.656;13.064;2022-10-13T07:13:52;11.20;58.50
19090;DHT22;9677;50.656;13.064;2022-10-13T07:16:21;11.20;58.60
19090;DHT22;9677;50.656;13.064;2022-10-13T07:18:50;11.30;58.60
19090;DHT22;9677;50.656;13.064;2022-10-13T07:21:18;11.30;58.70
19090;DHT22;9677;50.656;13.064;2022-10-13T07:23:47;11.30;58.70
19090;DHT22;9677;50.656;13.064;2022-10-13T07:26:17;11.30;58.80
19090;DHT22;9677;50.656;13.064;2022-10-13T07:28:46;11.30;58.80
19090;DHT22;9677;50.656;13.064;2022-10-13T07:31:17;11.40;58.80
19090;DHT22;9677;50.656;13.064;2022-10-13T07:33:48;11.40;58.90
19090;DHT22;9677;50.656;13.064;2022-10-13T07:36:18;11.40;58.80
19090;DHT22;9677;50.656;13.064;2022-10-13T07:38:46;11.50;58.90
19090;DHT22;9677;50.656;13.064;2022-10-13T07:41:16;11.50;59.00
19090;DHT22;9677;50.656;13.064;2022-10-13T07:43:45;11.50;59.00
19090;DHT22;9677;50.656;13.064;2022-10-13T07:46:14;11.60;59.00
19090;DHT22;9677;50.656;13.064;2022-10-13T07:48:43;11.70;59.20
19090;DHT22;9677;50.656;13.064;2022-10-13T07:51:12;11.60;59.10
19090;DHT22;9677;50.656;13.064;2022-10-13T07:53:41;11.60;59.10
19090;DHT22;9677;50.656;13.064;2022-10-13T07:56:12;11.90;59.30
19090;DHT22;9677;50.656;13.064;2022-10-13T07:58:44;11.70;59.20
19090;DHT22;9677;50.656;13.064;2022-10-13T08:01:14;11.80;59.30
19090;DHT22;9677;50.656;13.064;2022-10-13T08:03:43;11.80;59.30
19090;DHT22;9677;50.656;13.064;2022-10-13T08:06:17;11.80;59.30
19090;DHT22;9677;50.656;13.064;2022-10-13T08:08:46;11.90;59.40
19090;DHT22;9677;50.656;13.064;2022-10-13T08:11:18;11.90;59.50
19090;DHT22;9677;50.656;13.064;2022-10-13T08:13:49;12.00;59.60
19090;DHT22;9677;50.656;13.064;2022-10-13T08:16:21;12.10;59.80
19090;DHT22;9677;50.656;13.064;2022-10-13T08:18:50;12.20;59.90
19090;DHT22;9677;50.656;13.064;2022-10-13T08:21:19;12.20;59.90
19090;DHT22;9677;50.656;13.064;2022-10-13T08:24:10;12.30;60.00
19090;DHT22;9677;50.656;13.064;2022-10-13T08:26:41;12.40;60.20
19090;DHT22;9677;50.656;13.064;2022-10-13T08:29:13;12.50;60.40
19090;DHT22;9677;50.656;13.064;2022-10-13T08:31:50;12.50;60.40
19090;DHT22;9677;50.656;13.064;2022-10-13T08:34:20;12.70;60.50
19090;DHT22;9677;50.656;13.064;2022-10-13T08:36:50;12.80;60.60
19090;DHT22;9677;50.656;13.064;2022-10-13T08:39:22;12.80;60.70
19090;DHT22;9677;50.656;13.064;2022-10-13T08:41:52;12.90;60.90
19090;DHT22;9677;50.656;13.064;2022-10-13T08:44:25;13.00;60.90
19090;DHT22;9677;50.656;13.064;2022-10-13T08:47:34;13.10;61.10
19090;DHT22;9677;50.656;13.064;2022-10-13T08:50:13;13.30;61.40
19090;DHT22;9677;50.656;13.064;2022-10-13T08:52:47;13.40;61.30
19090;DHT22;9677;50.656;13.064;2022-10-13T08:55:22;13.50;61.30
19090;DHT22;9677;50.656;13.064;2022-10-13T08:57:52;13.60;61.30
19090;DHT22;9677;50.656;13.064;2022-10-13T09:00:26;13.70;61.30
19090;DHT22;9677;50.656;13.064;2022-10-13T09:03:06;13.80;61.40
19090;DHT22;9677;50.656;13.064;2022-10-13T09:05:58;13.90;61.60
19090;DHT22;9677;50.656;13.064;2022-10-13T09:08:35;14.10;61.90
19090;DHT22;9677;50.656;13.064;2022-10-13T09:11:09;14.30;61.80
19090;DHT22;9677;50.656;13.064;2022-10-13T09:13:38;14.40;61.60
19090;DHT22;9677;50.656;13.064;2022-10-13T09:16:09;14.50;61.30
19090;DHT22;9677;50.656;13.064;2022-10-13T09:18:38;14.60;61.40
19090;DHT22;9677;50.656;13.064;2022-10-13T09:21:19;14.80;61.30
19090;DHT22;9677;50.656;13.064;2022-10-13T09:23:49;14.90;61.40
19090;DHT22;9677;50.656;13.064;2022-10-13T09:26:22;15.00;61.40
19090;DHT22;9677;50.656;13.064;2022-10-13T09:28:51;15.20;61.20
19090;DHT22;9677;50.656;13.064;2022-10-13T09:31:24;15.30;60.90
19090;DHT22;9677;50.656;13.064;2022-10-13T09:33:58;15.40;60.80
19090;DHT22;9677;50.656;13.064;2022-10-13T09:36:28;15.60;60.70
19090;DHT22;9677;50.656;13.064;2022-10-13T09:39:06;15.70;60.40
19090;DHT22;9677;50.656;13.064;2022-10-13T09:41:39;15.80;60.20
19090;DHT22;9677;50.656;13.064;2022-10-13T09:44:13;16.00;60.00
19090;DHT22;9677;50.656;13.064;2022-10-13T09:46:50;16.10;59.80
19090;DHT22;9677;50.656;13.064;2022-10-13T09:49:34;16.20;59.60
19090;DHT22;9677;50.656;13.064;2022-10-13T09:52:13;16.40;59.50
19090;DHT22;9677;50.656;13.064;2022-10-13T09:54:45;16.50;59.30
19090;DHT22;9677;50.656;13.064;2022-10-13T09:57:21;16.60;59.20
19090;DHT22;9677;50.656;13.064;2022-10-13T10:00:03;16.70;59.00
19090;DHT22;9677;50.656;13.064;2022-10-13T10:02:45;16.80;58.80
19090;DHT22;9677;50.656;13.064;2022-10-13T10:05:22;16.90;58.60
19090;DHT22;9677;50.656;13.064;2022-10-13T10:07:59;17.00;58.40
19090;DHT22;9677;50.656;13.064;2022-10-13T10:10:35;17.10;58.30
19090;DHT22;9677;50.656;13.064;2022-10-13T10:13:10;17.20;58.10
19090;DHT22;9677;50.656;13.064;2022-10-13T10:15:46;17.30;57.90
19090;DHT22;9677;50.656;13.064;2022-10-13T10:18:28;17.40;57.80
19090;DHT22;9677;50.656;13.064;2022-10-13T10:21:06;17.40;57.70
19090;DHT22;9677;50.656;13.064;2022-10-13T10:23:42;17.50;57.60
19090;DHT22;9677;50.656;13.064;2022-10-13T10:26:18;17.50;57.50
19090;DHT22;9677;50.656;13.064;2022-10-13T10:29:08;17.60;57.50
19090;DHT22;9677;50.656;13.064;2022-10-13T10:32:10;17.60;57.40
19090;DHT22;9677;50.656;13.064;2022-10-13T10:34:49;17.70;57.40
19090;DHT22;9677;50.656;13.064;2022-10-13T10:37:36;17.80;57.30
19090;DHT22;9677;50.656;13.064;2022-10-13T10:40:29;17.80;57.00
19090;DHT22;9677;50.656;13.064;2022-10-13T10:46:17;18.00;56.90
19090;DHT22;9677;50.656;13.064;2022-10-13T10:48:51;18.10;56.90
19090;DHT22;9677;50.656;13.064;2022-10-13T10:51:35;18.10;56.70
19090;DHT22;9677;50.656;13.064;2022-10-13T10:54:18;18.10;56.50
19090;DHT22;9677;50.656;13.064;2022-10-13T10:56:55;18.20;56.40
19090;DHT22;9677;50.656;13.064;2022-10-13T10:59:37;18.20;56.40
19090;DHT22;9677;50.656;13.064;2022-10-13T11:02:33;18.30;56.30
19090;DHT22;9677;50.656;13.064;2022-10-13T11:05:07;18.30;56.30
19090;DHT22;9677;50.656;13.064;2022-10-13T11:07:57;18.30;56.20
19090;DHT22;9677;50.656;13.064;2022-10-13T11:10:27;18.40;56.10
19090;DHT22;9677;50.656;13.064;2022-10-13T11:13:23;18.40;56.00
19090;DHT22;9677;50.656;13.064;2022-10-13T11:15:53;18.40;55.80
19090;DHT22;9677;50.656;13.064;2022-10-13T11:24:56;18.40;55.90
19090;DHT22;9677;50.656;13.064;2022-10-13T11:27:39;18.50;56.00
19090;DHT22;9677;50.656;13.064;2022-10-13T11:30:47;18.50;56.00
19090;DHT22;9677;50.656;13.064;2022-10-13T11:33:51;18.60;56.10
19090;DHT22;9677;50.656;13.064;2022-10-13T11:36:29;18.60;55.90
19090;DHT22;9677;50.656;13.064;2022-10-13T11:39:12;18.70;56.00
19090;DHT22;9677;50.656;13.064;2022-10-13T11:42:21;18.80;55.90
19090;DHT22;9677;50.656;13.064;2022-10-13T11:45:00;18.80;55.80
19090;DHT22;9677;50.656;13.064;2022-10-13T11:51:14;18.90;55.60
19090;DHT22;9677;50.656;13.064;2022-10-13T11:53:54;19.00;55.60
19090;DHT22;9677;50.656;13.064;2022-10-13T11:56:33;19.10;55.60
19090;DHT22;9677;50.656;13.064;2022-10-13T11:59:19;19.10;55.60
19090;DHT22;9677;50.656;13.064;2022-10-13T12:01:52;19.10;55.40
19090;DHT22;9677;50.656;13.064;2022-10-13T12:04:24;19.20;55.50
19090;DHT22;9677;50.656;13.064;2022-10-13T12:07:00;19.30;55.40
19090;DHT22;9677;50.656;13.064;2022-10-13T12:09:31;19.30;55.30
19090;DHT22;9677;50.656;13.064;2022-10-13T12:12:02;19.40;55.40
19090;DHT22;9677;50.656;13.064;2022-10-13T12:14:38;19.30;55.10
19090;DHT22;9677;50.656;13.064;2022-10-13T12:17:20;19.40;55.10
19090;DHT22;9677;50.656;13.064;2022-10-13T12:19:51;19.50;54.90
19090;DHT22;9677;50.656;13.064;2022-10-13T12:22:20;19.50;54.90
19090;DHT22;9677;50.656;13.064;2022-10-13T12:24:59;19.50;54.80
19090;DHT22;9677;50.656;13.064;2022-10-13T12:27:30;19.50;54.50
19090;DHT22;9677;50.656;13.064;2022-10-13T12:30:02;19.60;54.70
19090;DHT22;9677;50.656;13.064;2022-10-13T12:32:33;19.60;54.70
19090;DHT22;9677;50.656;13.064;2022-10-13T12:35:17;19.60;54.70
19090;DHT22;9677;50.656;13.064;2022-10-13T12:37:47;19.60;54.50
19090;DHT22;9677;50.656;13.064;2022-10-13T12:40:17;19.60;54.60
19090;DHT22;9677;50.656;13.064;2022-10-13T12:42:47;19.60;54.50
19090;DHT22;9677;50.656;13.064;2022-10-13T12:45:20;19.70;55.10
19090;DHT22;9677;50.656;13.064;2022-10-13T12:47:51;19.70;54.50
19090;DHT22;9677;50.656;13.064;2022-10-13T12:50:31;19.70;54.50
19090;DHT22;9677;50.656;13.064;2022-10-13T12:53:11;19.60;54.30
19090;DHT22;9677;50.656;13.064;2022-10-13T12:55:50;19.70;54.40
19090;DHT22;9677;50.656;13.064;2022-10-13T12:58:29;19.70;54.30
19090;DHT22;9677;50.656;13.064;2022-10-13T13:01:24;19.70;54.30
19090;DHT22;9677;50.656;13.064;2022-10-13T13:03:57;19.70;54.10
19090;DHT22;9677;50.656;13.064;2022-10-13T13:06:35;19.70;54.30
19090;DHT22;9677;50.656;13.064;2022-10-13T13:09:07;19.70;54.20
19090;DHT22;9677;50.656;13.064;2022-10-13T13:12:25;19.70;54.30
19090;DHT22;9677;50.656;13.064;2022-10-13T13:14:55;19.70;54.10
19090;DHT22;9677;50.656;13.064;2022-10-13T13:17:31;19.80;54.40
19090;DHT22;9677;50.656;13.064;2022-10-13T13:20:23;19.80;54.30
19090;DHT22;9677;50.656;13.064;2022-10-13T13:22:54;19.80;54.20
19090;DHT22;9677;50.656;13.064;2022-10-13T13:25:23;19.90;54.30
19090;DHT22;9677;50.656;13.064;2022-10-13T13:27:52;19.90;54.30
19090;DHT22;9677;50.656;13.064;2022-10-13T13:30:22;19.90;54.30
19090;DHT22;9677;50.656;13.064;2022-10-13T13:32:52;19.90;54.30
19090;DHT22;9677;50.656;13.064;2022-10-13T13:35:21;20.00;54.40
19090;DHT22;9677;50.656;13.064;2022-10-13T13:37:50;20.00;54.20
19090;DHT22;9677;50.656;13.064;2022-10-13T13:40:22;20.00;54.10
19090;DHT22;9677;50.656;13.064;2022-10-13T13:42:51;20.00;54.00
19090;DHT22;9677;50.656;13.064;2022-10-13T13:45:23;20.10;54.00
19090;DHT22;9677;50.656;13.064;2022-10-13T13:47:54;20.10;53.80
19090;DHT22;9677;50.656;13.064;2022-10-13T13:50:30;20.10;53.60
19090;DHT22;9677;50.656;13.064;2022-10-13T13:53:00;20.10;53.60
19090;DHT22;9677;50.656;13.064;2022-10-13T13:55:29;20.10;53.60
19090;DHT22;9677;50.656;13.064;2022-10-13T13:57:59;20.10;53.60
19090;DHT22;9677;50.656;13.064;2022-10-13T14:00:28;20.10;53.50
19090;DHT22;9677;50.656;13.064;2022-10-13T14:02:58;20.10;53.40
19090;DHT22;9677;50.656;13.064;2022-10-13T14:05:26;20.10;53.40
19090;DHT22;9677;50.656;13.064;2022-10-13T14:07:56;20.10;53.40
19090;DHT22;9677;50.656;13.064;2022-10-13T14:10:25;20.00;53.30
19090;DHT22;9677;50.656;13.064;2022-10-13T14:12:55;20.00;53.30
19090;DHT22;9677;50.656;13.064;2022-10-13T14:15:23;20.00;53.30
19090;DHT22;9677;50.656;13.064;2022-10-13T14:17:56;20.00;53.30
19090;DHT22;9677;50.656;13.064;2022-10-13T14:20:26;20.00;53.30
19090;DHT22;9677;50.656;13.064;2022-10-13T14:22:54;19.90;53.30
19090;DHT22;9677;50.656;13.064;2022-10-13T14:25:23;19.90;53.40
19090;DHT22;9677;50.656;13.064;2022-10-13T14:27:51;19.90;53.40
19090;DHT22;9677;50.656;13.064;2022-10-13T14:30:20;19.90;53.40
19090;DHT22;9677;50.656;13.064;2022-10-13T14:32:49;19.90;53.40
19090;DHT22;9677;50.656;13.064;2022-10-13T14:35:19;19.90;53.40
19090;DHT22;9677;50.656;13.064;2022-10-13T14:37:47;19.80;53.40
19090;DHT22;9677;50.656;13.064;2022-10-13T14:40:17;19.80;53.50
19090;DHT22;9677;50.656;13.064;2022-10-13T14:42:45;19.80;53.40
19090;DHT22;9677;50.656;13.064;2022-10-13T14:45:14;19.80;53.30
19090;DHT22;9677;50.656;13.064;2022-10-13T14:47:43;19.70;53.30
19090;DHT22;9677;50.656;13.064;2022-10-13T14:50:12;19.80;53.30
19090;DHT22;9677;50.656;13.064;2022-10-13T14:52:44;19.70;53.30
19090;DHT22;9677;50.656;13.064;2022-10-13T14:55:13;19.70;53.20
19090;DHT22;9677;50.656;13.064;2022-10-13T14:57:42;19.70;53.30
19090;DHT22;9677;50.656;13.064;2022-10-13T15:00:13;19.70;53.30
19090;DHT22;9677;50.656;13.064;2022-10-13T15:02:42;19.70;53.40
19090;DHT22;9677;50.656;13.064;2022-10-13T15:05:11;19.60;53.30
19090;DHT22;9677;50.656;13.064;2022-10-13T15:07:39;19.60;53.30
19090;DHT22;9677;50.656;13.064;2022-10-13T15:10:09;19.60;53.40
19090;DHT22;9677;50.656;13.064;2022-10-13T15:12:38;19.60;53.40
19090;DHT22;9677;50.656;13.064;2022-10-13T15:15:07;19.50;53.30
19090;DHT22;9677;50.656;13.064;2022-10-13T15:17:36;19.50;53.40
19090;DHT22;9677;50.656;13.064;2022-10-13T15:20:06;19.50;53.40
19090;DHT22;9677;50.656;13.064;2022-10-13T15:22:35;19.40;53.40
19090;DHT22;9677;50.656;13.064;2022-10-13T15:25:09;19.40;53.40
19090;DHT22;9677;50.656;13.064;2022-10-13T15:27:38;19.30;53.40
19090;DHT22;9677;50.656;13.064;2022-10-13T15:30:09;19.40;53.50
19090;DHT22;9677;50.656;13.064;2022-10-13T15:32:38;19.30;53.50
19090;DHT22;9677;50.656;13.064;2022-10-13T15:35:07;19.30;53.60
19090;DHT22;9677;50.656;13.064;2022-10-13T15:37:39;19.30;53.60
19090;DHT22;9677;50.656;13.064;2022-10-13T15:40:10;19.20;53.60
19090;DHT22;9677;50.656;13.064;2022-10-13T15:42:39;19.20;53.60
19090;DHT22;9677;50.656;13.064;2022-10-13T15:45:09;19.20;53.70
19090;DHT22;9677;50.656;13.064;2022-10-13T15:47:38;19.20;53.70
19090;DHT22;9677;50.656;13.064;2022-10-13T15:50:07;19.20;53.80
19090;DHT22;9677;50.656;13.064;2022-10-13T15:52:37;19.10;53.70
19090;DHT22;9677;50.656;13.064;2022-10-13T15:55:07;19.10;53.70
19090;DHT22;9677;50.656;13.064;2022-10-13T15:57:38;19.10;53.80
19090;DHT22;9677;50.656;13.064;2022-10-13T16:00:07;19.10;53.80
19090;DHT22;9677;50.656;13.064;2022-10-13T16:02:38;19.10;53.80
19090;DHT22;9677;50.656;13.064;2022-10-13T16:05:09;19.00;53.70
19090;DHT22;9677;50.656;13.064;2022-10-13T16:07:39;19.00;53.80
19090;DHT22;9677;50.656;13.064;2022-10-13T16:10:11;19.00;53.80
19090;DHT22;9677;50.656;13.064;2022-10-13T16:12:41;19.00;53.80
19090;DHT22;9677;50.656;13.064;2022-10-13T16:15:16;18.90;53.80
19090;DHT22;9677;50.656;13.064;2022-10-13T16:17:46;18.90;53.80
19090;DHT22;9677;50.656;13.064;2022-10-13T16:20:14;18.90;54.50